x

South Bass Island, Oh (sbio1) Weather Station

12:00pm - Thu 28th Jul 2016 All times are CDT. -5 hours from GMT.

  • Wind
    5mph, 8mph gusts
  • Air Temp 81°f
  • Sea Pressure 1012mb
  • South Bass Island, Oh
  • South Bass Island, Oh

More Historic Weather Station data

Upgrade to MSW Pro to gain access to the past 30 days of data for over 8000 Wavebouys and Weather Stations around the globe.

Join Pro

Comparision Forecast

View Surf forecast
   
Thu 07/28 12:00pm 5 8 mph 1012mb 81f
11:00am 5 7 mph 1012.1mb 80f
10:00am 7 8 mph 1012mb 80f
9:00am 2 3 mph 1012.5mb 80f
8:00am 2
mph
1012.9mb 80f
7:00am 7 8 mph 1012.7mb 78f
6:00am 6 7 mph 1012.6mb 78f
5:00am 5 6 mph 1012.1mb 78f
4:00am 1 2 mph 1011.9mb 75f
3:00am 7
mph
1012.2mb 77f
2:00am 8
mph
1012.5mb 78f
1:00am 3 6 mph 1012.7mb 79f
12:00am 3 5 mph 1013.4mb 77f
Wed 07/27 11:00pm 6 8 mph 1013.5mb 78f
10:00pm 8
mph
1013.6mb 80f
9:00pm 5 6 mph 1013mb 80f
8:00pm 6 7 mph 1012.6mb 81f
7:00pm 1 2 mph 1013mb 86f
6:00pm 2
mph
1013mb 86f
5:00pm 6
mph
1013.3mb 86f
4:00pm 2 6 mph 1013.7mb 87f
3:00pm 2 3 mph 1014.2mb 85f
2:00pm 2 3 mph 1015.1mb 86f
1:00pm 2 3 mph 1015.6mb 82f
12:00pm 3 5 mph 1015.8mb 80f
11:00am 3
mph
1016mb 80f
10:00am 5
mph
1016.3mb 78f
9:00am 7 8 mph 1016.6mb 77f
8:00am 6 7 mph 1016.5mb 77f
7:00am 5 6 mph 1016.6mb 77f
6:00am 7 8 mph 1016.5mb 76f
5:00am 3 6 mph 1015.9mb 76f
4:00am 6 7 mph 1015.6mb 75f
3:00am 3 5 mph 1015.5mb 76f
2:00am 6 8 mph 1015.3mb 77f
1:00am 6 7 mph 1015.6mb 77f
12:00am 6 8 mph 1015.8mb 77f
Tue 07/26 11:00pm 5 7 mph 1015.9mb 77f
10:00pm 7 8 mph 1015.8mb 78f
9:00pm 7 8 mph 1015.7mb 78f
8:00pm 6 7 mph 1015.7mb 78f
7:00pm 6
mph
1015.9mb 80f
6:00pm 6 7 mph 1015.7mb 80f
5:00pm 6 7 mph 1015.6mb 80f
4:00pm 6 7 mph 1016.2mb 81f
3:00pm 7 8 mph 1016.5mb 79f
2:00pm 7 8 mph 1017.2mb 79f
1:00pm 7 9 mph 1017.8mb 78f
12:00pm 6 8 mph 1017.9mb 78f
11:00am 7 9 mph 1018.3mb 78f
10:00am 8 11 mph 1017.8mb 78f
9:00am 5 9 mph 1017.7mb 78f
8:00am 3 7 mph 1017.8mb 77f
7:00am 3 7 mph 1017.7mb 74f
6:00am 1 2 mph 1017.3mb 72f
5:00am 5 7 mph 1016.6mb 71f
4:00am 7 9 mph 1015.8mb 73f
3:00am 8 13 mph 1015.4mb 76f
2:00am 16 20 mph 1015mb 78f
1:00am 16 17 mph 1014.6mb 79f
12:00am 13 14 mph 1014.6mb 79f
Mon 07/25 11:00pm 13 14 mph 1014.2mb 80f
10:00pm 13
mph
1014.2mb 81f
9:00pm 11 13 mph 1014mb 81f
8:00pm 13
mph
1013.5mb 82f
7:00pm 13 14 mph 1012.8mb 83f
6:00pm 11 13 mph 1012.4mb 84f
5:00pm 6
mph
1012.4mb 83f
4:00pm 6 7 mph 1012.8mb 83f
3:00pm 10
mph
1013.1mb 82f
2:00pm 10
mph
1013.6mb 81f
1:00pm 11 13 mph 1013.9mb 80f
12:00pm 13 14 mph 1014mb 79f
11:00am 15 16 mph 1014.3mb 79f
10:00am 17 18 mph 1013.9mb 78f
9:00am 21 22 mph 1013.6mb 78f
8:00am 21 23 mph 1013.2mb 78f
7:00am 21 23 mph 1013.1mb 79f
6:00am 13 14 mph 1012.3mb 79f
5:00am 10 11 mph 1012mb 79f
4:00am 17 20 mph 1012mb 80f
3:00am 20 23 mph 1012.1mb 80f
2:00am 10 14 mph 1012.3mb 79f
1:00am 11 15 mph 1012.7mb 79f
12:00am 14 17 mph 1012.5mb 79f
Sun 07/24 11:00pm 15 17 mph 1012.7mb 80f
10:00pm 9 10 mph 1013.2mb 79f
9:00pm 10 11 mph 1013.2mb 79f
8:00pm 11 14 mph 1012.8mb 79f
7:00pm 8 9 mph 1013.4mb 81f